sensor_id;sensor_type;location;lat;lon;timestamp;P1;durP1;ratioP1;P2;durP2;ratioP2
50739;SDS011;36704;52.524;17.580;2023-01-16T00:00:26;3.83;;;2.28;;
50739;SDS011;36704;52.524;17.580;2023-01-16T00:03:28;4.72;;;1.95;;
50739;SDS011;36704;52.524;17.580;2023-01-16T00:06:15;4.15;;;2.17;;
50739;SDS011;36704;52.524;17.580;2023-01-16T00:09:02;4.18;;;2.65;;
50739;SDS011;36704;52.524;17.580;2023-01-16T00:11:51;4.07;;;2.05;;
50739;SDS011;36704;52.524;17.580;2023-01-16T00:14:37;2.95;;;1.92;;
50739;SDS011;36704;52.524;17.580;2023-01-16T00:17:24;12.45;;;4.78;;
50739;SDS011;36704;52.524;17.580;2023-01-16T00:20:10;4.88;;;2.70;;
50739;SDS011;36704;52.524;17.580;2023-01-16T00:22:56;10.20;;;4.10;;
50739;SDS011;36704;52.524;17.580;2023-01-16T00:25:43;5.10;;;2.30;;
50739;SDS011;36704;52.524;17.580;2023-01-16T00:28:29;5.07;;;2.78;;
50739;SDS011;36704;52.524;17.580;2023-01-16T00:31:18;8.20;;;3.35;;
50739;SDS011;36704;52.524;17.580;2023-01-16T00:34:05;3.58;;;2.17;;
50739;SDS011;36704;52.524;17.580;2023-01-16T00:36:52;5.50;;;2.63;;
50739;SDS011;36704;52.524;17.580;2023-01-16T00:39:37;4.05;;;1.88;;
50739;SDS011;36704;52.524;17.580;2023-01-16T00:42:25;5.05;;;2.55;;
50739;SDS011;36704;52.524;17.580;2023-01-16T00:45:11;3.33;;;1.98;;
50739;SDS011;36704;52.524;17.580;2023-01-16T00:47:57;6.03;;;2.80;;
50739;SDS011;36704;52.524;17.580;2023-01-16T00:50:45;6.55;;;2.67;;
50739;SDS011;36704;52.524;17.580;2023-01-16T00:53:32;6.38;;;2.45;;
50739;SDS011;36704;52.524;17.580;2023-01-16T00:56:19;9.82;;;4.53;;
50739;SDS011;36704;52.524;17.580;2023-01-16T00:59:06;9.60;;;3.50;;
50739;SDS011;36704;52.524;17.580;2023-01-16T01:01:53;5.53;;;2.10;;
50739;SDS011;36704;52.524;17.580;2023-01-16T01:04:42;7.38;;;2.70;;
50739;SDS011;36704;52.524;17.580;2023-01-16T01:07:28;11.27;;;3.55;;
50739;SDS011;36704;52.524;17.580;2023-01-16T01:10:17;5.88;;;2.42;;
50739;SDS011;36704;52.524;17.580;2023-01-16T01:13:08;5.20;;;2.75;;
50739;SDS011;36704;52.524;17.580;2023-01-16T01:15:59;4.97;;;2.20;;
50739;SDS011;36704;52.524;17.580;2023-01-16T01:18:48;4.65;;;2.60;;
50739;SDS011;36704;52.524;17.580;2023-01-16T01:21:37;4.72;;;2.47;;
50739;SDS011;36704;52.524;17.580;2023-01-16T01:24:23;6.97;;;2.40;;
50739;SDS011;36704;52.524;17.580;2023-01-16T01:27:34;7.93;;;3.85;;
50739;SDS011;36704;52.524;17.580;2023-01-16T01:30:25;8.52;;;3.58;;
50739;SDS011;36704;52.524;17.580;2023-01-16T01:33:38;5.97;;;2.63;;
50739;SDS011;36704;52.524;17.580;2023-01-16T01:36:35;22.63;;;7.07;;
50739;SDS011;36704;52.524;17.580;2023-01-16T01:40:23;5.47;;;2.30;;
50739;SDS011;36704;52.524;17.580;2023-01-16T01:43:47;3.10;;;2.33;;
50739;SDS011;36704;52.524;17.580;2023-01-16T01:46:37;3.67;;;1.80;;
50739;SDS011;36704;52.524;17.580;2023-01-16T01:49:57;3.28;;;1.83;;
50739;SDS011;36704;52.524;17.580;2023-01-16T01:53:26;7.22;;;2.80;;
50739;SDS011;36704;52.524;17.580;2023-01-16T01:56:33;6.65;;;2.00;;
50739;SDS011;36704;52.524;17.580;2023-01-16T02:00:09;4.68;;;2.42;;
50739;SDS011;36704;52.524;17.580;2023-01-16T02:03:36;10.88;;;3.45;;
50739;SDS011;36704;52.524;17.580;2023-01-16T02:06:48;8.00;;;3.60;;
50739;SDS011;36704;52.524;17.580;2023-01-16T02:09:40;4.10;;;2.10;;
50739;SDS011;36704;52.524;17.580;2023-01-16T02:12:35;4.15;;;1.60;;
50739;SDS011;36704;52.524;17.580;2023-01-16T02:15:28;3.88;;;2.00;;
50739;SDS011;36704;52.524;17.580;2023-01-16T02:19:02;6.57;;;2.20;;
50739;SDS011;36704;52.524;17.580;2023-01-16T02:29:09;4.93;;;2.28;;
50739;SDS011;36704;52.524;17.580;2023-01-16T02:33:14;5.28;;;2.90;;
50739;SDS011;36704;52.524;17.580;2023-01-16T02:39:25;4.00;;;1.98;;
50739;SDS011;36704;52.524;17.580;2023-01-16T02:51:56;4.07;;;1.70;;
50739;SDS011;36704;52.524;17.580;2023-01-16T02:55:06;9.30;;;3.55;;
50739;SDS011;36704;52.524;17.580;2023-01-16T02:58:03;7.53;;;2.90;;
50739;SDS011;36704;52.524;17.580;2023-01-16T03:00:56;6.13;;;3.00;;
50739;SDS011;36704;52.524;17.580;2023-01-16T03:10:51;6.72;;;4.15;;
50739;SDS011;36704;52.524;17.580;2023-01-16T04:36:30;5.72;;;2.90;;
50739;SDS011;36704;52.524;17.580;2023-01-16T04:39:17;4.88;;;3.65;;
50739;SDS011;36704;52.524;17.580;2023-01-16T04:42:06;6.53;;;3.63;;
50739;SDS011;36704;52.524;17.580;2023-01-16T04:44:55;5.75;;;2.90;;
50739;SDS011;36704;52.524;17.580;2023-01-16T04:47:49;5.13;;;3.17;;
50739;SDS011;36704;52.524;17.580;2023-01-16T06:10:53;7.03;;;4.30;;
50739;SDS011;36704;52.524;17.580;2023-01-16T06:13:40;8.00;;;3.70;;
50739;SDS011;36704;52.524;17.580;2023-01-16T06:38:12;9.20;;;5.40;;
50739;SDS011;36704;52.524;17.580;2023-01-16T06:41:05;8.95;;;4.70;;
50739;SDS011;36704;52.524;17.580;2023-01-16T06:43:55;8.30;;;4.82;;
50739;SDS011;36704;52.524;17.580;2023-01-16T06:46:44;8.50;;;4.90;;
50739;SDS011;36704;52.524;17.580;2023-01-16T07:30:44;17.35;;;8.07;;
50739;SDS011;36704;52.524;17.580;2023-01-16T07:33:31;19.45;;;11.07;;
50739;SDS011;36704;52.524;17.580;2023-01-16T07:36:17;16.90;;;8.20;;
50739;SDS011;36704;52.524;17.580;2023-01-16T07:39:03;13.45;;;7.05;;
50739;SDS011;36704;52.524;17.580;2023-01-16T07:41:49;17.33;;;10.10;;
50739;SDS011;36704;52.524;17.580;2023-01-16T07:44:43;21.98;;;14.20;;
50739;SDS011;36704;52.524;17.580;2023-01-16T07:47:28;21.10;;;13.02;;
50739;SDS011;36704;52.524;17.580;2023-01-16T07:50:14;28.70;;;15.45;;
50739;SDS011;36704;52.524;17.580;2023-01-16T09:33:35;52.92;;;20.88;;
50739;SDS011;36704;52.524;17.580;2023-01-16T09:36:27;38.05;;;16.02;;
50739;SDS011;36704;52.524;17.580;2023-01-16T10:40:20;36.72;;;19.05;;
50739;SDS011;36704;52.524;17.580;2023-01-16T10:43:14;37.42;;;17.30;;
50739;SDS011;36704;52.524;17.580;2023-01-16T10:46:22;17.10;;;10.45;;
50739;SDS011;36704;52.524;17.580;2023-01-16T10:49:37;21.35;;;12.30;;
50739;SDS011;36704;52.524;17.580;2023-01-16T10:52:24;20.10;;;11.73;;
50739;SDS011;36704;52.524;17.580;2023-01-16T10:55:11;21.40;;;11.55;;
50739;SDS011;36704;52.524;17.580;2023-01-16T10:57:58;26.90;;;15.63;;
50739;SDS011;36704;52.524;17.580;2023-01-16T11:00:53;32.35;;;16.85;;
50739;SDS011;36704;52.524;17.580;2023-01-16T11:03:45;56.30;;;21.95;;
50739;SDS011;36704;52.524;17.580;2023-01-16T11:06:32;16.38;;;8.50;;
50739;SDS011;36704;52.524;17.580;2023-01-16T11:09:21;19.05;;;9.57;;
50739;SDS011;36704;52.524;17.580;2023-01-16T11:12:09;19.90;;;9.40;;
50739;SDS011;36704;52.524;17.580;2023-01-16T11:15:20;49.25;;;21.05;;
50739;SDS011;36704;52.524;17.580;2023-01-16T11:18:27;23.80;;;10.82;;
50739;SDS011;36704;52.524;17.580;2023-01-16T11:21:28;31.20;;;15.82;;
50739;SDS011;36704;52.524;17.580;2023-01-16T11:24:16;19.83;;;7.47;;
50739;SDS011;36704;52.524;17.580;2023-01-16T11:27:07;15.63;;;6.47;;
50739;SDS011;36704;52.524;17.580;2023-01-16T11:30:07;11.20;;;6.03;;
50739;SDS011;36704;52.524;17.580;2023-01-16T11:33:37;20.42;;;7.00;;
50739;SDS011;36704;52.524;17.580;2023-01-16T11:36:34;28.48;;;11.63;;
50739;SDS011;36704;52.524;17.580;2023-01-16T11:39:53;11.32;;;5.35;;
50739;SDS011;36704;52.524;17.580;2023-01-16T11:42:50;12.75;;;5.60;;
50739;SDS011;36704;52.524;17.580;2023-01-16T11:46:01;22.00;;;9.90;;
50739;SDS011;36704;52.524;17.580;2023-01-16T11:49:03;23.52;;;10.60;;
50739;SDS011;36704;52.524;17.580;2023-01-16T11:52:03;11.50;;;5.85;;
50739;SDS011;36704;52.524;17.580;2023-01-16T11:55:09;10.35;;;5.90;;
50739;SDS011;36704;52.524;17.580;2023-01-16T11:58:08;22.45;;;8.95;;
50739;SDS011;36704;52.524;17.580;2023-01-16T12:01:08;12.98;;;5.47;;
50739;SDS011;36704;52.524;17.580;2023-01-16T12:07:16;12.95;;;5.90;;
50739;SDS011;36704;52.524;17.580;2023-01-16T12:13:45;15.73;;;7.53;;
50739;SDS011;36704;52.524;17.580;2023-01-16T12:20:08;48.03;;;19.80;;
50739;SDS011;36704;52.524;17.580;2023-01-16T12:26:11;15.50;;;8.43;;
50739;SDS011;36704;52.524;17.580;2023-01-16T12:29:36;12.07;;;6.28;;
50739;SDS011;36704;52.524;17.580;2023-01-16T12:32:48;13.57;;;6.22;;
50739;SDS011;36704;52.524;17.580;2023-01-16T12:38:37;15.23;;;6.78;;
50739;SDS011;36704;52.524;17.580;2023-01-16T12:41:38;16.63;;;6.70;;
50739;SDS011;36704;52.524;17.580;2023-01-16T13:07:01;17.40;;;8.05;;
50739;SDS011;36704;52.524;17.580;2023-01-16T13:13:17;22.30;;;8.13;;
50739;SDS011;36704;52.524;17.580;2023-01-16T13:19:20;10.68;;;5.53;;
50739;SDS011;36704;52.524;17.580;2023-01-16T13:22:19;15.23;;;6.03;;
50739;SDS011;36704;52.524;17.580;2023-01-16T13:28:24;15.88;;;7.18;;
50739;SDS011;36704;52.524;17.580;2023-01-16T13:31:32;44.08;;;28.80;;
50739;SDS011;36704;52.524;17.580;2023-01-16T13:34:24;28.67;;;15.85;;
50739;SDS011;36704;52.524;17.580;2023-01-16T13:41:08;18.27;;;8.02;;
50739;SDS011;36704;52.524;17.580;2023-01-16T13:47:13;11.13;;;5.47;;
50739;SDS011;36704;52.524;17.580;2023-01-16T13:50:04;16.52;;;7.40;;
50739;SDS011;36704;52.524;17.580;2023-01-16T13:52:54;13.60;;;8.65;;
50739;SDS011;36704;52.524;17.580;2023-01-16T13:55:42;15.43;;;8.07;;
50739;SDS011;36704;52.524;17.580;2023-01-16T13:58:29;20.15;;;11.55;;
50739;SDS011;36704;52.524;17.580;2023-01-16T14:07:07;60.85;;;34.95;;
50739;SDS011;36704;52.524;17.580;2023-01-16T14:11:34;43.10;;;20.90;;
50739;SDS011;36704;52.524;17.580;2023-01-16T14:14:32;64.90;;;23.88;;
50739;SDS011;36704;52.524;17.580;2023-01-16T14:20:44;41.28;;;17.42;;
50739;SDS011;36704;52.524;17.580;2023-01-16T14:23:39;106.88;;;35.80;;
50739;SDS011;36704;52.524;17.580;2023-01-16T14:26:53;63.78;;;24.50;;
50739;SDS011;36704;52.524;17.580;2023-01-16T14:30:36;54.72;;;22.48;;
50739;SDS011;36704;52.524;17.580;2023-01-16T14:33:26;73.97;;;28.95;;
50739;SDS011;36704;52.524;17.580;2023-01-16T14:36:13;30.40;;;12.13;;
50739;SDS011;36704;52.524;17.580;2023-01-16T15:36:13;30.50;;;17.27;;
50739;SDS011;36704;52.524;17.580;2023-01-16T15:40:27;31.00;;;15.45;;
50739;SDS011;36704;52.524;17.580;2023-01-16T15:43:16;34.72;;;17.63;;
50739;SDS011;36704;52.524;17.580;2023-01-16T16:22:27;36.55;;;16.92;;
50739;SDS011;36704;52.524;17.580;2023-01-16T16:25:54;47.67;;;21.90;;
50739;SDS011;36704;52.524;17.580;2023-01-16T16:28:42;52.00;;;24.42;;
50739;SDS011;36704;52.524;17.580;2023-01-16T16:32:27;43.05;;;21.08;;
50739;SDS011;36704;52.524;17.580;2023-01-16T16:36:26;42.88;;;21.35;;
50739;SDS011;36704;52.524;17.580;2023-01-16T16:40:22;72.43;;;31.63;;
50739;SDS011;36704;52.524;17.580;2023-01-16T16:43:11;50.60;;;22.35;;
50739;SDS011;36704;52.524;17.580;2023-01-16T16:46:55;45.65;;;19.40;;
50739;SDS011;36704;52.524;17.580;2023-01-16T16:49:45;46.97;;;22.20;;
50739;SDS011;36704;52.524;17.580;2023-01-16T16:52:35;34.03;;;15.05;;
50739;SDS011;36704;52.524;17.580;2023-01-16T16:55:34;45.35;;;22.73;;
50739;SDS011;36704;52.524;17.580;2023-01-16T16:58:23;48.38;;;24.05;;
50739;SDS011;36704;52.524;17.580;2023-01-16T17:01:12;73.25;;;29.70;;
50739;SDS011;36704;52.524;17.580;2023-01-16T17:53:08;38.10;;;20.58;;
50739;SDS011;36704;52.524;17.580;2023-01-16T17:56:17;52.13;;;24.63;;
50739;SDS011;36704;52.524;17.580;2023-01-16T17:59:27;42.30;;;21.35;;
50739;SDS011;36704;52.524;17.580;2023-01-16T18:02:17;50.38;;;24.52;;
50739;SDS011;36704;52.524;17.580;2023-01-16T18:05:05;55.10;;;27.70;;
50739;SDS011;36704;52.524;17.580;2023-01-16T18:07:57;46.88;;;23.42;;
50739;SDS011;36704;52.524;17.580;2023-01-16T18:10:45;46.20;;;21.52;;
50739;SDS011;36704;52.524;17.580;2023-01-16T18:13:35;54.88;;;26.17;;
50739;SDS011;36704;52.524;17.580;2023-01-16T18:16:44;65.85;;;28.00;;
50739;SDS011;36704;52.524;17.580;2023-01-16T18:19:52;64.70;;;25.33;;
50739;SDS011;36704;52.524;17.580;2023-01-16T18:22:43;95.72;;;43.80;;
50739;SDS011;36704;52.524;17.580;2023-01-16T18:25:50;87.15;;;37.30;;
50739;SDS011;36704;52.524;17.580;2023-01-16T18:28:37;72.93;;;29.73;;
50739;SDS011;36704;52.524;17.580;2023-01-16T18:31:39;79.70;;;30.60;;
50739;SDS011;36704;52.524;17.580;2023-01-16T18:34:46;83.75;;;36.17;;
50739;SDS011;36704;52.524;17.580;2023-01-16T18:37:44;62.40;;;27.10;;
50739;SDS011;36704;52.524;17.580;2023-01-16T18:40:52;73.00;;;29.17;;
50739;SDS011;36704;52.524;17.580;2023-01-16T18:43:57;80.65;;;30.77;;
50739;SDS011;36704;52.524;17.580;2023-01-16T18:47:04;100.38;;;35.92;;
50739;SDS011;36704;52.524;17.580;2023-01-16T18:50:10;68.75;;;28.90;;
50739;SDS011;36704;52.524;17.580;2023-01-16T18:53:22;89.45;;;31.70;;
50739;SDS011;36704;52.524;17.580;2023-01-16T18:56:35;84.90;;;30.95;;
50739;SDS011;36704;52.524;17.580;2023-01-16T18:59:47;141.68;;;46.83;;
50739;SDS011;36704;52.524;17.580;2023-01-16T19:02:58;203.27;;;65.40;;
50739;SDS011;36704;52.524;17.580;2023-01-16T19:05:46;238.23;;;69.13;;
50739;SDS011;36704;52.524;17.580;2023-01-16T19:08:35;276.25;;;91.97;;
50739;SDS011;36704;52.524;17.580;2023-01-16T21:09:19;59.70;;;26.92;;
50739;SDS011;36704;52.524;17.580;2023-01-16T21:13:01;69.95;;;28.02;;
50739;SDS011;36704;52.524;17.580;2023-01-16T21:23:17;47.72;;;23.20;;
50739;SDS011;36704;52.524;17.580;2023-01-16T21:28:36;48.47;;;22.20;;
50739;SDS011;36704;52.524;17.580;2023-01-16T21:32:04;46.20;;;22.88;;
50739;SDS011;36704;52.524;17.580;2023-01-16T21:36:24;49.08;;;24.30;;
50739;SDS011;36704;52.524;17.580;2023-01-16T21:39:39;57.25;;;26.52;;
50739;SDS011;36704;52.524;17.580;2023-01-16T21:43:35;41.70;;;22.42;;
50739;SDS011;36704;52.524;17.580;2023-01-16T21:47:59;39.42;;;19.25;;
50739;SDS011;36704;52.524;17.580;2023-01-16T21:51:30;36.65;;;19.17;;
50739;SDS011;36704;52.524;17.580;2023-01-16T21:55:12;48.15;;;21.70;;
50739;SDS011;36704;52.524;17.580;2023-01-16T21:59:37;40.28;;;19.73;;
50739;SDS011;36704;52.524;17.580;2023-01-16T22:07:56;35.60;;;18.85;;
50739;SDS011;36704;52.524;17.580;2023-01-16T22:12:06;31.30;;;17.42;;
50739;SDS011;36704;52.524;17.580;2023-01-16T22:15:27;32.33;;;17.27;;
50739;SDS011;36704;52.524;17.580;2023-01-16T22:18:46;32.22;;;18.42;;
50739;SDS011;36704;52.524;17.580;2023-01-16T22:21:32;37.03;;;18.90;;
50739;SDS011;36704;52.524;17.580;2023-01-16T22:24:19;40.33;;;21.25;;
50739;SDS011;36704;52.524;17.580;2023-01-16T22:27:05;40.65;;;19.67;;
50739;SDS011;36704;52.524;17.580;2023-01-16T22:29:52;33.78;;;17.17;;
50739;SDS011;36704;52.524;17.580;2023-01-16T22:32:42;37.13;;;18.75;;
50739;SDS011;36704;52.524;17.580;2023-01-16T22:35:29;34.00;;;17.88;;
50739;SDS011;36704;52.524;17.580;2023-01-16T22:38:17;31.48;;;16.45;;
50739;SDS011;36704;52.524;17.580;2023-01-16T22:41:04;35.55;;;17.35;;
50739;SDS011;36704;52.524;17.580;2023-01-16T22:43:51;38.97;;;18.90;;
50739;SDS011;36704;52.524;17.580;2023-01-16T22:46:56;30.15;;;16.10;;
50739;SDS011;36704;52.524;17.580;2023-01-16T22:49:42;31.10;;;16.13;;
50739;SDS011;36704;52.524;17.580;2023-01-16T22:52:29;28.52;;;15.82;;
50739;SDS011;36704;52.524;17.580;2023-01-16T22:55:16;31.45;;;16.38;;
50739;SDS011;36704;52.524;17.580;2023-01-16T22:58:04;30.60;;;16.85;;
50739;SDS011;36704;52.524;17.580;2023-01-16T23:00:51;32.35;;;16.85;;
50739;SDS011;36704;52.524;17.580;2023-01-16T23:03:37;33.78;;;17.42;;
50739;SDS011;36704;52.524;17.580;2023-01-16T23:06:24;38.15;;;20.58;;
50739;SDS011;36704;52.524;17.580;2023-01-16T23:09:11;33.97;;;18.75;;
50739;SDS011;36704;52.524;17.580;2023-01-16T23:11:57;33.80;;;17.23;;
50739;SDS011;36704;52.524;17.580;2023-01-16T23:14:43;34.90;;;18.75;;
50739;SDS011;36704;52.524;17.580;2023-01-16T23:17:29;31.88;;;17.02;;
50739;SDS011;36704;52.524;17.580;2023-01-16T23:20:16;31.48;;;16.75;;
50739;SDS011;36704;52.524;17.580;2023-01-16T23:23:03;32.55;;;17.90;;
50739;SDS011;36704;52.524;17.580;2023-01-16T23:25:50;33.75;;;16.80;;
50739;SDS011;36704;52.524;17.580;2023-01-16T23:28:39;37.70;;;19.10;;
50739;SDS011;36704;52.524;17.580;2023-01-16T23:31:28;30.63;;;15.82;;
50739;SDS011;36704;52.524;17.580;2023-01-16T23:35:01;33.00;;;17.77;;
50739;SDS011;36704;52.524;17.580;2023-01-16T23:37:52;31.63;;;16.17;;
50739;SDS011;36704;52.524;17.580;2023-01-16T23:40:42;30.67;;;16.75;;
50739;SDS011;36704;52.524;17.580;2023-01-16T23:43:34;32.40;;;17.40;;
50739;SDS011;36704;52.524;17.580;2023-01-16T23:47:36;31.38;;;18.08;;
50739;SDS011;36704;52.524;17.580;2023-01-16T23:50:50;28.45;;;15.65;;
50739;SDS011;36704;52.524;17.580;2023-01-16T23:53:43;30.70;;;17.25;;
50739;SDS011;36704;52.524;17.580;2023-01-16T23:56:31;30.20;;;16.08;;
50739;SDS011;36704;52.524;17.580;2023-01-16T23:59:18;28.73;;;16.10;;
